Terminal Aerodrome Forecast
Issued by NWS

Home | Current Version | Previous Version | Text Only | Print | Product List | Glossary On
Versions: 1 2 3 4 5 6 7 8 9 10 11 12 13 14 15 16 17
043
FTUS43 KPAH 062057 AAD
TAFCGI
TAF AMD
KCGI 062057Z 0621/0718 33013G20KT P6SM BKN250
     FM062300 33008KT P6SM BKN250
     FM070200 36003KT P6SM BKN150
     FM071400 02005KT P6SM SCT080=

USA.gov is the U.S. government's official web portal to all federal, state and local government web resources and services.